Time;durP1;ratioP1;P1;durP2;ratioP2;P2;SDS_P1;SDS_P2;PMS_P1;PMS_P2;Temp;Humidity;BMP_temperature;BMP_pressure;BME280_temperature;BME280_humidity;BME280_pressure;Samples;Min_cycle;Max_cycle;Signal;HPM_P1;HPM_P2
2023/05/17 00:01:03;;;;;;;1871.23;380.57;;;;;;;7.14;100.00;101167.94;5083338;28;20525;-84
2023/05/17 00:03:28;;;;;;;1315.43;299.30;;;;;;;7.01;100.00;101140.72;5093317;28;20027;-85
2023/05/17 00:05:53;;;;;;;178.90;59.40;;;;;;;7.08;100.00;101138.41;5073185;28;20024;-84
2023/05/17 00:08:19;;;;;;;860.57;164.17;;;;;;;7.05;100.00;101142.16;5098489;28;20556;-83
2023/05/17 00:10:44;;;;;;;474.87;147.63;;;;;;;6.92;100.00;101125.59;5060165;28;20756;-83
2023/05/17 00:13:09;;;;;;;1363.13;226.57;;;;;;;6.85;100.00;101137.69;5076048;28;20047;-82
2023/05/17 00:15:35;;;;;;;417.17;218.03;;;;;;;6.84;100.00;101146.63;5085778;28;20050;-84
2023/05/17 00:18:00;;;;;;;1999.90;319.40;;;;;;;6.64;100.00;101137.66;5072226;28;20071;-85
2023/05/17 00:20:26;;;;;;;73.07;46.63;;;;;;;6.64;100.00;101138.50;5076877;28;20061;-84
2023/05/17 00:22:51;;;;;;;1043.05;183.05;;;;;;;6.76;100.00;101136.63;5107670;28;20486;-84
2023/05/17 00:25:17;;;;;;;523.93;148.97;;;;;;;6.80;100.00;101151.34;5076613;28;20042;-83
2023/05/17 00:27:42;;;;;;;308.10;112.57;;;;;;;6.71;100.00;101158.25;5067941;28;20043;-84
2023/05/17 00:30:07;;;;;;;55.20;36.07;;;;;;;6.69;100.00;101156.69;5072659;28;20039;-84
2023/05/17 00:32:35;;;;;;;348.17;108.75;;;;;;;6.63;100.00;101162.53;5072279;28;20016;-85
2023/05/17 00:35:00;;;;;;;955.97;176.80;;;;;;;6.53;100.00;101147.38;5091719;28;20034;-86
2023/05/17 00:37:26;;;;;;;854.47;241.43;;;;;;;6.54;100.00;101157.00;5072763;28;20421;-84
2023/05/17 00:39:52;;;;;;;934.80;229.23;;;;;;;6.55;100.00;101147.22;5092378;28;20407;-83
2023/05/17 00:42:18;;;;;;;743.78;140.85;;;;;;;6.48;100.00;101143.38;5092371;28;20056;-83
2023/05/17 00:44:43;;;;;;;143.77;37.90;;;;;;;6.46;100.00;101145.31;5075783;28;20872;-83
2023/05/17 00:47:08;;;;;;;1172.20;181.23;;;;;;;6.38;100.00;101138.00;5075481;28;20055;-85
2023/05/17 00:49:34;;;;;;;154.03;67.80;;;;;;;6.38;100.00;101143.31;5089277;28;20032;-84
2023/05/17 00:51:59;;;;;;;1032.50;173.17;;;;;;;6.39;100.00;101149.44;5092523;28;20084;-84
2023/05/17 00:54:25;;;;;;;1099.97;238.27;;;;;;;6.41;100.00;101158.13;5092275;28;20035;-82
2023/05/17 00:56:52;;;;;;;30.95;24.80;;;;;;;6.40;100.00;101153.81;5092131;28;20531;-84
2023/05/17 00:59:18;;;;;;;79.25;42.05;;;;;;;6.31;100.00;101155.38;5075620;28;20024;-83
2023/05/17 01:01:43;;;;;;;;;;;;;;;6.28;100.00;101153.00;5075624;28;20031;-83
2023/05/17 01:04:11;;;;;;;117.55;43.47;;;;;;;6.17;100.00;101148.53;5075206;28;20048;-83
2023/05/17 01:06:36;;;;;;;1488.13;179.93;;;;;;;6.13;100.00;101155.06;5092794;28;20119;-83
2023/05/17 01:09:03;;;;;;;318.52;99.57;;;;;;;6.18;100.00;101160.84;5091664;28;20274;-82
2023/05/17 01:11:41;;;;;;;28.38;10.27;;;;;;;6.26;100.00;101160.22;5092075;28;20031;-83
2023/05/17 01:14:38;;;;;;;100.72;43.35;;;;;;;6.17;100.00;101156.50;5074910;28;20510;-85
2023/05/17 01:17:18;;;;;;;151.77;58.38;;;;;;;6.09;100.00;101143.88;5091864;28;20128;-83
2023/05/17 01:20:00;;;;;;;115.40;38.72;;;;;;;6.07;100.00;101152.91;5075228;28;20042;-85
2023/05/17 01:22:42;;;;;;;160.95;46.15;;;;;;;6.05;100.00;101138.94;5102620;28;20448;-84
2023/05/17 01:25:19;;;;;;;95.15;26.00;;;;;;;6.04;100.00;101142.53;5101908;28;20038;-84
2023/05/17 01:27:49;;;;;;;27.77;9.10;;;;;;;6.01;100.00;101148.09;5080675;28;20046;-84
2023/05/17 01:30:18;;;;;;;49.03;19.98;;;;;;;5.95;100.00;101151.22;5075055;28;20031;-83
2023/05/17 01:32:44;;;;;;;40.92;21.05;;;;;;;5.88;100.00;101159.66;5071083;28;20028;-85
2023/05/17 01:35:11;;;;;;;46.33;36.25;;;;;;;5.81;100.00;101165.56;5075131;28;20073;-85
2023/05/17 01:37:39;;;;;;;28.52;15.50;;;;;;;5.82;100.00;101181.31;5091838;28;20509;-83
2023/05/17 01:40:07;;;;;;;320.50;127.22;;;;;;;5.85;100.00;101178.47;5078516;28;20115;-84
2023/05/17 01:42:37;;;;;;;32.22;7.43;;;;;;;5.82;100.00;101152.19;5071041;28;20483;-82
2023/05/17 01:45:23;;;;;;;20.00;6.85;;;;;;;5.74;100.00;101127.28;5091072;28;20035;-82
2023/05/17 01:48:02;;;;;;;21.88;4.03;;;;;;;5.81;100.00;101116.06;5078135;28;20119;-84
2023/05/17 01:50:31;;;;;;;16.92;5.20;;;;;;;5.68;100.00;101102.09;5075244;28;20030;-82
2023/05/17 01:53:24;;;;;;;14.77;4.88;;;;;;;5.70;100.00;101105.47;5074225;28;20513;-83
2023/05/17 01:55:55;;;;;;;9.90;4.25;;;;;;;5.63;100.00;101096.31;5091774;28;20035;-84
2023/05/17 01:58:24;;;;;;;20.00;4.15;;;;;;;5.68;100.00;101083.56;5088135;28;20495;-81
2023/05/17 02:00:55;;;;;;;34.88;13.13;;;;;;;5.57;100.00;101063.25;5074693;28;20023;-83
2023/05/17 02:03:21;;;;;;;22.60;4.18;;;;;;;5.58;100.00;101053.47;5081243;28;20403;-81
2023/05/17 02:05:51;;;;;;;18.88;3.40;;;;;;;5.60;100.00;101060.34;5075306;28;20107;-80
2023/05/17 02:08:16;;;;;;;16.53;6.40;;;;;;;5.55;100.00;101051.91;5110861;28;20094;-82
2023/05/17 02:10:42;;;;;;;22.58;9.13;;;;;;;5.52;100.00;101044.19;5078817;28;20031;-80
2023/05/17 02:13:07;;;;;;;15.33;3.80;;;;;;;5.46;100.00;101011.13;5095189;28;20035;-80
2023/05/17 02:15:32;;;;;;;17.90;3.40;;;;;;;5.56;100.00;100991.84;5092377;28;20107;-82
2023/05/17 02:17:58;;;;;;;21.53;6.37;;;;;;;5.47;100.00;100945.75;5079114;28;20028;-80
2023/05/17 02:20:23;;;;;;;23.23;2.75;;;;;;;5.60;100.00;100929.72;5078927;28;20023;-80
2023/05/17 02:22:50;;;;;;;11.93;1.95;;;;;;;5.61;100.00;100931.38;5095046;28;20177;-81
2023/05/17 02:25:15;;;;;;;13.57;4.73;;;;;;;5.62;100.00;100902.13;5112813;28;20090;-81
2023/05/17 02:27:41;;;;;;;16.88;2.90;;;;;;;5.60;100.00;100890.81;5078596;28;20107;-81
2023/05/17 02:30:07;;;;;;;17.27;3.03;;;;;;;5.61;100.00;100889.00;5095380;28;20032;-83
2023/05/17 02:32:32;;;;;;;32.45;5.22;;;;;;;5.52;100.00;100892.41;5091688;28;20636;-84
2023/05/17 02:34:58;;;;;;;13.60;3.87;;;;;;;5.40;100.00;100904.84;5095079;28;20081;-82
2023/05/17 02:37:23;;;;;;;21.07;7.67;;;;;;;5.30;100.00;100923.28;5095314;28;20285;-82
2023/05/17 02:39:49;;;;;;;22.83;3.45;;;;;;;5.31;100.00;100964.66;5077943;28;20775;-83
2023/05/17 02:42:14;;;;;;;8.97;3.17;;;;;;;5.33;100.00;100969.84;5090211;28;20035;-84
2023/05/17 02:44:40;;;;;;;13.70;2.53;;;;;;;5.28;100.00;100962.28;5091050;28;20036;-83
2023/05/17 02:47:05;;;;;;;11.47;3.47;;;;;;;5.29;100.00;100963.94;5094761;28;20037;-83
2023/05/17 02:49:30;;;;;;;14.38;2.47;;;;;;;5.25;100.00;100967.81;5078250;28;20024;-83
2023/05/17 02:51:56;;;;;;;14.77;3.70;;;;;;;5.31;100.00;100993.78;5077820;28;20579;-82
2023/05/17 02:54:21;;;;;;;13.93;3.80;;;;;;;5.38;100.00;101037.34;5094567;28;20441;-83
2023/05/17 02:56:46;;;;;;;18.57;3.23;;;;;;;5.40;100.00;101063.72;5077785;28;20027;-82
2023/05/17 02:59:12;;;;;;;14.23;3.72;;;;;;;5.30;100.00;101055.66;5078315;28;20028;-82
2023/05/17 03:01:40;;;;;;;16.92;5.25;;;;;;;5.39;100.00;101091.16;5074345;28;20038;-83
2023/05/17 03:04:06;;;;;;;17.77;4.10;;;;;;;5.39;100.00;101076.13;5094138;28;20409;-83
2023/05/17 03:06:33;;;;;;;25.60;5.17;;;;;;;5.36;100.00;101059.63;5078493;28;20088;-83
2023/05/17 03:08:59;;;;;;;15.95;6.65;;;;;;;5.39;100.00;101038.22;5078052;28;20468;-83
2023/05/17 03:11:24;;;;;;;20.67;3.17;;;;;;;5.55;100.00;101048.41;5078255;28;20070;-82
2023/05/17 03:13:51;;;;;;;27.35;11.27;;;;;;;5.55;100.00;101037.81;5078134;28;20034;-83
2023/05/17 03:16:20;;;;;;;16.05;3.20;;;;;;;5.56;100.00;101036.88;5085015;28;20036;-83
2023/05/17 03:18:46;;;;;;;18.02;3.45;;;;;;;5.55;100.00;101073.09;5092117;28;20111;-84
2023/05/17 03:21:12;;;;;;;19.88;3.50;;;;;;;5.53;100.00;101074.19;5091587;28;20506;-83
2023/05/17 03:23:37;;;;;;;14.97;2.70;;;;;;;5.41;100.00;101083.94;5077805;28;20026;-83
2023/05/17 03:26:03;;;;;;;20.30;3.53;;;;;;;5.41;100.00;101099.84;5094750;28;20036;-83
2023/05/17 03:28:33;;;;;;;17.73;5.00;;;;;;;5.38;100.00;101122.06;5095469;28;20023;-83
2023/05/17 03:30:59;;;;;;;20.20;3.40;;;;;;;5.34;100.00;101157.72;5076877;28;20032;-83
2023/05/17 03:33:27;;;;;;;40.67;20.92;;;;;;;5.26;100.00;101191.88;5078226;28;20100;-83
2023/05/17 03:35:56;;;;;;;28.53;13.27;;;;;;;5.15;100.00;101232.41;5094862;28;20702;-83
2023/05/17 03:38:22;;;;;;;27.27;8.40;;;;;;;5.07;100.00;101246.19;5068568;28;20028;-83
2023/05/17 03:40:47;;;;;;;22.33;4.88;;;;;;;5.14;100.00;101256.34;5095110;28;20118;-83
2023/05/17 03:43:13;;;;;;;31.50;4.20;;;;;;;5.11;100.00;101243.34;5077968;28;20580;-83
2023/05/17 03:45:38;;;;;;;23.23;6.28;;;;;;;5.16;100.00;101227.97;5078501;28;20851;-83
2023/05/17 03:48:05;;;;;;;30.90;18.25;;;;;;;5.19;100.00;101233.00;5094603;28;20027;-84
2023/05/17 03:50:31;;;;;;;25.70;4.75;;;;;;;5.31;100.00;101218.84;5113225;28;20506;-80
2023/05/17 03:52:56;;;;;;;;;;;;;;;5.39;100.00;101221.75;5086269;28;20368;-80
2023/05/17 03:55:22;;;;;;;20.27;5.38;;;;;;;5.39;100.00;101212.97;5078000;28;19964;-80
2023/05/17 03:57:48;;;;;;;35.53;10.52;;;;;;;5.29;100.00;101223.41;5094802;28;20042;-81
2023/05/17 04:00:20;;;;;;;15.95;3.00;;;;;;;5.21;100.00;101225.81;5112952;28;20023;-84
2023/05/17 04:02:45;;;;;;;31.40;5.35;;;;;;;5.30;100.00;101225.09;5094315;28;20195;-83
2023/05/17 04:05:12;;;;;;;25.30;4.97;;;;;;;5.31;100.00;101229.44;5082806;28;20541;-82
2023/05/17 04:07:39;;;;;;;21.45;3.58;;;;;;;5.38;100.00;101229.81;5090435;28;20755;-82
2023/05/17 04:10:05;;;;;;;20.40;4.65;;;;;;;5.35;100.00;101216.81;5094701;28;20106;-82
2023/05/17 04:12:34;;;;;;;28.38;12.23;;;;;;;5.37;100.00;101205.13;5077117;28;20035;-84
2023/05/17 04:15:00;;;;;;;17.77;2.95;;;;;;;5.46;100.00;101177.94;5082212;28;20544;-84
2023/05/17 04:17:27;;;;;;;24.13;4.32;;;;;;;5.41;100.00;101143.03;5077740;28;20426;-84
2023/05/17 04:19:52;;;;;;;20.13;4.38;;;;;;;5.42;100.00;101085.63;5094639;28;20020;-84
2023/05/17 04:22:21;;;;;;;14.15;3.08;;;;;;;5.54;100.00;101095.25;5073671;28;20028;-83
2023/05/17 04:24:46;;;;;;;13.82;2.80;;;;;;;5.65;100.00;101092.59;5108239;28;20027;-83
2023/05/17 04:27:13;;;;;;;20.75;4.10;;;;;;;5.77;100.00;101104.00;5094500;28;20115;-83
2023/05/17 04:29:39;;;;;;;22.02;4.72;;;;;;;5.72;100.00;101103.53;5094378;28;20027;-85
2023/05/17 04:32:06;;;;;;;21.92;3.08;;;;;;;5.86;100.00;101115.69;5077261;28;20028;-84
2023/05/17 04:34:32;;;;;;;21.35;5.75;;;;;;;5.80;100.00;101073.78;5090890;28;20062;-84
2023/05/17 04:36:59;;;;;;;16.38;3.70;;;;;;;5.88;100.00;101066.91;5076317;28;20047;-83
2023/05/17 04:39:26;;;;;;;11.63;2.90;;;;;;;5.85;100.00;101013.28;5094540;28;20084;-83
2023/05/17 04:41:51;;;;;;;17.15;2.72;;;;;;;5.95;100.00;100997.50;5077292;28;20384;-84
2023/05/17 04:44:17;;;;;;;21.85;3.28;;;;;;;5.98;100.00;100962.81;5107676;28;20032;-84
2023/05/17 04:46:44;;;;;;;19.80;3.22;;;;;;;5.91;100.00;100853.81;5091011;28;20521;-84
2023/05/17 04:49:11;;;;;;;20.95;4.57;;;;;;;6.01;100.00;100769.09;5082959;28;20031;-84
2023/05/17 04:51:37;;;;;;;83.35;12.15;;;;;;;6.04;100.00;100737.00;5078392;28;20047;-84
2023/05/17 04:54:05;;;;;;;23.97;2.53;;;;;;;6.10;100.00;100609.25;5076006;28;20035;-84
2023/05/17 04:56:33;;;;;;;14.40;3.33;;;;;;;6.14;100.00;100515.22;5075611;28;20012;-84
2023/05/17 04:58:58;;;;;;;15.45;3.20;;;;;;;6.23;100.00;100590.44;5094413;28;20031;-84
2023/05/17 05:01:24;;;;;;;15.80;2.67;;;;;;;5.98;100.00;100546.75;5090986;28;20105;-85
2023/05/17 05:03:50;;;;;;;11.48;2.28;;;;;;;6.10;100.00;100476.72;5076698;28;20067;-83
2023/05/17 05:06:16;;;;;;;18.50;2.92;;;;;;;6.19;100.00;100502.41;5077481;28;20043;-84
2023/05/17 05:08:41;;;;;;;14.47;2.23;;;;;;;6.16;100.00;100526.53;5077342;28;20042;-83
2023/05/17 05:11:09;;;;;;;22.85;3.47;;;;;;;6.30;100.00;100565.88;5073763;28;20024;-84
2023/05/17 05:13:37;;;;;;;16.83;3.58;;;;;;;6.29;100.00;100489.97;5077715;28;20054;-84
2023/05/17 05:16:04;;;;;;;14.40;2.45;;;;;;;6.34;100.00;100399.38;5088557;28;20499;-84
2023/05/17 05:18:30;;;;;;;13.02;2.97;;;;;;;6.32;100.00;100301.44;5077489;28;20487;-84
2023/05/17 05:20:56;;;;;;;17.25;2.95;;;;;;;6.26;100.00;100176.59;5075742;28;20039;-84
2023/05/17 05:23:21;;;;;;;5.10;2.07;;;;;;;6.45;100.00;100189.72;5093619;28;20055;-85
2023/05/17 05:25:50;;;;;;;;;;;;;;;6.50;100.00;100154.81;5078026;28;20076;-84
2023/05/17 05:28:16;;;;;;;14.32;2.58;;;;;;;6.42;100.00;100202.47;5074161;28;19935;-84
2023/05/17 05:30:42;;;;;;;13.18;2.30;;;;;;;6.46;100.00;100249.75;5107842;28;20020;-84
2023/05/17 05:33:09;;;;;;;30.77;3.78;;;;;;;6.51;100.00;100326.22;5090499;28;20086;-85
2023/05/17 05:35:35;;;;;;;17.05;2.88;;;;;;;6.59;100.00;100363.44;5077566;28;20027;-84
2023/05/17 05:38:01;;;;;;;12.10;3.60;;;;;;;6.55;100.00;100359.41;5090807;28;20038;-85
2023/05/17 05:40:26;;;;;;;16.63;2.70;;;;;;;6.59;100.00;100424.44;5090628;28;20027;-84
2023/05/17 05:42:52;;;;;;;13.60;2.37;;;;;;;6.72;100.00;100402.91;5075821;28;20120;-84
2023/05/17 05:45:20;;;;;;;9.27;2.25;;;;;;;6.94;100.00;100476.00;5094393;28;20023;-85
2023/05/17 05:47:46;;;;;;;10.57;2.20;;;;;;;6.85;100.00;100238.88;5105290;28;20024;-85
2023/05/17 05:50:12;;;;;;;15.03;2.30;;;;;;;6.86;100.00;100176.00;5090920;28;20549;-84
2023/05/17 05:52:38;;;;;;;18.38;2.83;;;;;;;7.00;100.00;100167.53;5094123;28;20031;-85
2023/05/17 05:55:03;;;;;;;20.23;2.93;;;;;;;7.09;100.00;100205.59;5078077;28;20023;-85
2023/05/17 05:57:29;;;;;;;17.77;2.85;;;;;;;7.08;100.00;100226.00;5094928;28;20028;-86
2023/05/17 05:59:54;;;;;;;13.13;2.73;;;;;;;7.17;100.00;100083.53;5094959;28;20031;-84
2023/05/17 06:02:20;;;;;;;12.97;2.60;;;;;;;7.14;100.00;99940.47;5093623;28;20491;-84
2023/05/17 06:04:46;;;;;;;13.57;2.67;;;;;;;7.14;100.00;99781.22;5073917;28;20032;-85
2023/05/17 06:07:13;;;;;;;13.20;3.90;;;;;;;7.27;100.00;99762.16;5090664;28;20046;-85
2023/05/17 06:09:38;;;;;;;;;;;;;;;7.30;100.00;99722.00;5077917;28;20054;-84
2023/05/17 06:12:03;;;;;;;;;;;;;;;7.32;100.00;99690.81;5077322;28;19918;-85
2023/05/17 06:14:29;;;;;;;15.70;3.13;;;;;;;7.39;100.00;99912.19;5093697;28;20054;-85
2023/05/17 06:16:54;;;;;;;59.33;6.50;;;;;;;7.29;100.00;99737.09;5111858;28;20055;-85
2023/05/17 06:19:19;;;;;;;11.87;3.77;;;;;;;7.33;99.20;99668.59;5092431;28;20063;-85
2023/05/17 06:21:45;;;;;;;10.30;2.40;;;;;;;7.46;99.74;99787.56;5073946;28;20032;-84
2023/05/17 06:24:10;;;;;;;20.27;3.00;;;;;;;7.40;97.61;99696.13;5110398;28;20518;-85
2023/05/17 06:26:35;;;;;;;27.33;3.20;;;;;;;7.68;98.53;99855.97;5111046;28;20568;-85
2023/05/17 06:29:01;;;;;;;9.43;1.97;;;;;;;7.68;97.25;99775.41;5112471;28;20027;-85
2023/05/17 06:31:26;;;;;;;13.93;2.67;;;;;;;8.08;97.97;99947.34;5094100;28;20112;-85
2023/05/17 06:33:51;;;;;;;13.13;2.37;;;;;;;8.37;99.61;100143.66;5112225;28;20039;-84
2023/05/17 06:36:17;;;;;;;17.27;4.07;;;;;;;8.35;100.00;100211.31;5094151;28;20024;-86
2023/05/17 06:38:42;;;;;;;11.73;3.10;;;;;;;8.00;96.77;99904.81;5073504;28;20032;-87
2023/05/17 06:41:08;;;;;;;13.43;2.03;;;;;;;8.17;96.52;99949.00;5093112;28;20020;-84
2023/05/17 06:43:33;;;;;;;14.63;2.80;;;;;;;8.27;95.12;99900.97;5111263;28;20039;-85
2023/05/17 06:45:58;;;;;;;9.77;2.17;;;;;;;8.12;94.89;99862.75;5111778;28;20275;-86
2023/05/17 06:48:25;;;;;;;18.63;3.60;;;;;;;8.18;95.61;99995.03;5097698;28;20430;-85
2023/05/17 06:50:50;;;;;;;14.05;2.45;;;;;;;7.89;94.97;99939.69;5090555;28;20060;-84
2023/05/17 06:53:15;;;;;;;16.47;3.63;;;;;;;8.15;96.17;100117.69;5091297;28;20059;-82
2023/05/17 06:55:41;;;;;;;8.30;1.93;;;;;;;8.32;95.76;100110.56;5113758;28;20027;-83
2023/05/17 06:58:07;;;;;;;14.10;2.38;;;;;;;8.24;94.44;100045.75;5095149;28;20055;-82
2023/05/17 07:00:33;;;;;;;7.72;1.90;;;;;;;8.19;93.35;99980.75;5113877;28;20451;-83
2023/05/17 07:02:58;;;;;;;12.57;2.83;;;;;;;7.96;92.25;99883.06;5094817;28;20039;-83
2023/05/17 07:05:24;;;;;;;17.52;3.47;;;;;;;8.18;93.06;100024.28;5095387;28;20048;-84
2023/05/17 07:07:49;;;;;;;21.90;3.23;;;;;;;8.28;92.10;99993.03;5095138;28;20491;-84
2023/05/17 07:10:15;;;;;;;13.47;3.97;;;;;;;8.45;92.80;100125.09;5095171;28;20399;-84
2023/05/17 07:12:40;;;;;;;9.70;3.20;;;;;;;8.68;92.78;100175.00;5111529;28;20039;-83
2023/05/17 07:15:06;;;;;;;19.23;3.03;;;;;;;8.76;94.60;100339.22;5094945;28;20020;-84
2023/05/17 07:17:31;;;;;;;13.75;2.88;;;;;;;8.57;93.57;100213.41;5094871;28;20027;-84
2023/05/17 07:19:56;;;;;;;13.17;2.37;;;;;;;8.50;93.73;100239.00;5094791;28;20084;-83
2023/05/17 07:22:22;;;;;;;14.03;2.90;;;;;;;8.65;95.65;100441.47;5094252;28;20110;-82
2023/05/17 07:24:47;;;;;;;13.10;2.60;;;;;;;8.70;94.64;100409.06;5094801;28;20055;-86
2023/05/17 07:27:16;;;;;;;14.82;2.88;;;;;;;8.87;90.72;100113.50;5078113;28;20046;-83
2023/05/17 07:29:41;;;;;;;15.70;2.97;;;;;;;8.68;91.45;100150.22;5077939;28;20027;-82
2023/05/17 07:32:08;;;;;;;14.93;2.43;;;;;;;8.57;92.28;100183.28;5094072;28;20039;-85
2023/05/17 07:34:34;;;;;;;17.23;3.08;;;;;;;8.78;93.79;100409.09;5074222;28;20994;-84
2023/05/17 07:37:00;;;;;;;;;;;;;;;9.16;92.19;100378.47;5089159;28;20598;-84
2023/05/17 07:39:25;;;;;;;11.20;3.00;;;;;;;8.93;91.83;100260.25;5094511;28;20015;-83
2023/05/17 07:41:50;;;;;;;14.70;2.63;;;;;;;8.87;89.60;100137.44;5112558;28;20520;-84
2023/05/17 07:44:16;;;;;;;16.90;2.90;;;;;;;9.64;89.51;100285.41;5091230;28;20084;-83
2023/05/17 07:46:41;;;;;;;15.23;2.73;;;;;;;9.62;89.42;100263.41;5094383;28;20040;-84
2023/05/17 07:49:06;;;;;;;15.23;2.57;;;;;;;9.21;86.89;99992.59;5077905;28;20024;-83
2023/05/17 07:51:33;;;;;;;23.10;3.50;;;;;;;8.90;85.91;99834.63;5096009;28;20226;-85
2023/05/17 07:54:01;;;;;;;10.43;2.67;;;;;;;8.88;86.01;99944.78;5113052;28;20016;-83
2023/05/17 07:56:27;;;;;;;13.50;3.10;;;;;;;9.01;86.74;100047.22;5078773;28;20032;-83
2023/05/17 07:58:52;;;;;;;11.13;2.53;;;;;;;8.71;85.03;99908.56;5095377;28;20042;-83
2023/05/17 08:01:17;;;;;;;12.57;2.77;;;;;;;8.98;84.94;100010.31;5112285;28;20031;-84
2023/05/17 08:03:46;;;;;;;12.90;2.70;;;;;;;10.19;82.47;100062.44;5094878;28;20027;-84
2023/05/17 08:06:13;;;;;;;14.13;1.90;;;;;;;10.46;80.15;99887.63;5111620;28;20391;-85
2023/05/17 08:08:39;;;;;;;13.02;2.33;;;;;;;10.70;78.10;99713.84;5095168;28;20058;-86
2023/05/17 08:11:06;;;;;;;8.75;2.00;;;;;;;10.20;77.52;99595.41;5077685;28;20027;-85
2023/05/17 08:13:31;;;;;;;15.52;2.47;;;;;;;9.91;78.01;99613.13;5113670;28;20027;-85
2023/05/17 08:16:01;;;;;;;8.60;1.80;;;;;;;10.07;79.90;99896.66;5094549;28;20621;-83
2023/05/17 08:18:26;;;;;;;9.45;2.28;;;;;;;9.66;80.20;99833.81;5078685;28;20031;-83
2023/05/17 08:20:51;;;;;;;9.27;1.80;;;;;;;9.66;80.33;99896.94;5111732;28;20028;-84
2023/05/17 08:23:17;;;;;;;11.63;2.27;;;;;;;10.74;80.01;100174.31;5094452;28;20089;-83
2023/05/17 08:25:42;;;;;;;14.50;2.60;;;;;;;10.85;76.66;99823.28;5077698;28;20504;-83
2023/05/17 08:28:07;;;;;;;13.17;2.63;;;;;;;10.54;75.76;99672.19;5091107;28;20020;-80
2023/05/17 08:30:33;;;;;;;9.90;2.27;;;;;;;10.34;73.93;99479.03;5094795;28;20038;-84
2023/05/17 08:32:59;;;;;;;14.57;2.20;;;;;;;10.83;75.66;99869.88;5093419;28;20040;-85
2023/05/17 08:35:24;;;;;;;13.77;3.13;;;;;;;10.67;77.26;99996.34;5091438;28;20073;-85
2023/05/17 08:37:50;;;;;;;11.35;1.88;;;;;;;10.21;77.37;99906.50;5094982;28;20015;-85
2023/05/17 08:40:18;;;;;;;18.20;2.60;;;;;;;10.55;79.28;100277.03;5112601;28;20130;-84
2023/05/17 08:42:45;;;;;;;9.38;1.80;;;;;;;10.80;79.20;100321.50;5069127;28;20027;-86
2023/05/17 08:45:11;;;;;;;10.32;3.92;;;;;;;10.42;76.32;99871.16;5113162;28;20035;-85
2023/05/17 08:47:38;;;;;;;9.95;2.08;;;;;;;10.94;75.28;99934.31;5112920;28;20548;-84
2023/05/17 08:50:04;;;;;;;10.65;2.08;;;;;;;10.74;74.60;99842.44;5095038;28;20027;-85
2023/05/17 08:52:31;;;;;;;6.43;1.95;;;;;;;11.57;76.53;100260.03;5086051;28;20081;-84
2023/05/17 08:54:58;;;;;;;10.10;2.38;;;;;;;11.45;75.71;100127.78;5093132;28;20236;-84
2023/05/17 08:57:26;;;;;;;12.25;2.25;;;;;;;10.84;75.46;99965.81;5076533;28;20028;-83
2023/05/17 08:59:54;;;;;;;9.25;1.90;;;;;;;11.22;74.74;100064.59;5094631;28;20027;-84
2023/05/17 09:02:21;;;;;;;14.35;2.92;;;;;;;11.87;74.42;100242.22;5091578;28;20019;-85
2023/05/17 09:04:53;;;;;;;9.15;1.95;;;;;;;11.90;73.24;100025.19;5074627;28;20123;-85
2023/05/17 09:07:19;;;;;;;6.18;1.70;;;;;;;11.91;72.82;100034.84;5094308;28;20036;-84
2023/05/17 09:09:44;;;;;;;11.68;1.95;;;;;;;11.41;73.67;99988.38;5111338;28;20026;-85
2023/05/17 09:12:10;;;;;;;18.33;3.33;;;;;;;10.45;73.01;99732.03;5093928;28;20147;-84
2023/05/17 09:14:35;;;;;;;10.63;2.17;;;;;;;11.32;72.61;100017.03;5077241;28;20022;-85
2023/05/17 09:17:01;;;;;;;12.97;2.00;;;;;;;11.44;72.06;99949.75;5093865;28;20273;-84
2023/05/17 09:19:26;;;;;;;7.27;1.77;;;;;;;11.01;73.01;99922.91;5091239;28;20398;-84
2023/05/17 09:21:58;;;;;;;12.20;2.80;;;;;;;10.49;71.54;99669.28;5075682;28;20175;-84
2023/05/17 09:24:30;;;;;;;12.50;1.98;;;;;;;10.41;72.83;99858.81;5079232;28;20081;-84
2023/05/17 09:27:02;;;;;;;8.10;1.73;;;;;;;12.34;72.79;100430.22;5112574;28;20105;-84
2023/05/17 09:29:31;;;;;;;9.07;1.83;;;;;;;13.03;69.63;100136.03;5077038;28;20050;-83
2023/05/17 09:32:10;;;;;;;7.97;1.83;;;;;;;12.39;68.90;99901.31;5110521;28;20023;-85
2023/05/17 09:34:39;;;;;;;11.23;2.90;;;;;;;11.88;68.98;99726.84;5091187;28;20066;-84
2023/05/17 09:37:05;;;;;;;16.52;2.28;;;;;;;11.90;70.11;99925.38;5094657;28;20083;-85
2023/05/17 09:39:31;;;;;;;12.82;1.85;;;;;;;11.56;71.73;100050.63;5094939;28;20047;-85
2023/05/17 09:41:57;;;;;;;11.57;2.88;;;;;;;11.63;71.57;100085.50;5113488;28;20072;-85
2023/05/17 09:44:23;;;;;;;8.50;2.60;;;;;;;12.54;69.66;100128.78;5091689;28;20036;-85
2023/05/17 09:46:49;;;;;;;10.05;2.45;;;;;;;13.00;68.77;100061.41;5077798;28;20027;-85
2023/05/17 09:49:16;;;;;;;10.50;1.40;;;;;;;12.51;67.89;99853.41;5077950;28;20095;-85
2023/05/17 09:51:43;;;;;;;14.38;2.10;;;;;;;13.00;67.30;100037.28;5078700;28;20023;-85
2023/05/17 09:54:09;;;;;;;10.70;2.45;;;;;;;13.08;66.81;99945.19;5091313;28;20833;-85
2023/05/17 09:56:35;;;;;;;10.15;1.88;;;;;;;12.38;66.35;99663.28;5071095;28;20038;-84
2023/05/17 09:59:02;;;;;;;15.98;3.63;;;;;;;12.29;69.09;100048.03;5069166;28;20039;-84
2023/05/17 10:01:30;;;;;;;7.32;1.98;;;;;;;12.97;68.92;100273.47;5102866;28;20083;-84
2023/05/17 10:04:01;;;;;;;7.03;2.03;;;;;;;13.56;66.24;100108.00;5094094;28;20453;-85
2023/05/17 10:06:29;;;;;;;14.63;2.40;;;;;;;13.65;66.32;100061.19;5091100;28;20051;-85
2023/05/17 10:08:57;;;;;;;17.05;2.92;;;;;;;13.46;66.59;100042.16;5076142;28;20028;-85
2023/05/17 10:11:32;;;;;;;13.30;1.85;;;;;;;13.10;64.79;99688.56;5094696;28;20648;-85
2023/05/17 10:14:17;;;;;;;5.40;1.50;;;;;;;14.62;64.02;100162.13;5094242;28;20041;-85
2023/05/17 10:16:44;;;;;;;6.07;1.40;;;;;;;13.66;63.90;99757.09;5094995;28;20529;-85
2023/05/17 10:19:10;;;;;;;4.63;1.55;;;;;;;13.85;61.34;99581.03;5070004;28;20446;-86
2023/05/17 10:21:36;;;;;;;;;;;;;;;14.38;62.23;99816.28;5095191;28;20472;-86
2023/05/17 10:24:02;;;;;;;6.68;1.42;;;;;;;14.02;59.43;99374.75;5068432;28;19922;-85
2023/05/17 10:26:29;;;;;;;8.95;1.75;;;;;;;14.16;59.87;99486.34;5098250;28;20040;-84
2023/05/17 10:29:00;;;;;;;6.60;1.60;;;;;;;14.70;61.19;99852.16;5068529;28;20036;-85
2023/05/17 10:31:30;;;;;;;7.80;1.73;;;;;;;15.46;60.82;100039.69;5079211;28;20032;-84
2023/05/17 10:33:57;;;;;;;11.48;1.55;;;;;;;14.73;59.79;99661.81;5089507;28;20028;-85
2023/05/17 10:36:23;;;;;;;10.80;1.80;;;;;;;12.57;61.06;99167.25;5079886;28;20395;-85
2023/05/17 10:38:50;;;;;;;7.20;1.80;;;;;;;13.03;63.73;99900.22;5095151;28;20031;-86
2023/05/17 10:41:18;;;;;;;6.28;1.50;;;;;;;13.25;62.72;99787.53;5091538;28;20490;-85
2023/05/17 10:43:45;;;;;;;11.32;1.67;;;;;;;13.40;61.86;99723.88;5109166;28;20032;-86
2023/05/17 10:46:21;;;;;;;10.23;1.60;;;;;;;14.89;61.12;100120.03;5101653;28;20015;-86
2023/05/17 10:48:51;;;;;;;10.45;1.73;;;;;;;16.23;59.86;100206.78;5108010;28;20062;-85
2023/05/17 10:51:23;;;;;;;5.65;1.75;;;;;;;13.90;59.48;99468.53;5121090;28;20033;-83
2023/05/17 10:54:09;;;;;;;8.30;2.28;;;;;;;13.73;62.71;99969.84;5080847;28;20881;-85
2023/05/17 10:56:39;;;;;;;4.55;1.13;;;;;;;15.16;61.32;100236.44;5081422;28;20047;-86
2023/05/17 10:59:16;;;;;;;7.95;2.22;;;;;;;14.61;59.92;99744.13;5081674;28;20157;-86
2023/05/17 11:01:53;;;;;;;6.72;1.33;;;;;;;13.42;59.63;99354.53;5079915;28;20043;-84
2023/05/17 11:04:30;;;;;;;14.98;2.92;;;;;;;12.94;62.08;99662.16;5109484;28;20043;-84
2023/05/17 11:07:16;;;;;;;9.65;2.10;;;;;;;14.50;61.04;100069.72;5115443;28;20031;-84
2023/05/17 11:09:42;;;;;;;14.38;2.25;;;;;;;15.16;58.77;99935.31;5078809;28;20391;-83
2023/05/17 11:12:09;;;;;;;5.68;1.20;;;;;;;15.73;57.99;99972.34;5093182;28;20055;-84
2023/05/17 11:14:44;;;;;;;5.05;1.52;;;;;;;14.60;58.25;99543.69;5092877;28;20039;-84
2023/05/17 11:17:13;;;;;;;8.63;1.45;;;;;;;13.72;59.29;99419.13;5079540;28;20036;-83
2023/05/17 11:20:10;;;;;;;10.13;1.70;;;;;;;13.18;62.05;99736.63;5097368;28;20028;-86
2023/05/17 11:22:37;;;;;;;7.50;1.65;;;;;;;13.65;61.77;99873.44;5092887;28;20466;-84